createdAt,value
2022-08-04T00:03:55.658Z,21.47
2022-08-04T00:09:01.720Z,21.42
2022-08-04T00:14:06.915Z,21.30
2022-08-04T00:19:34.289Z,21.27
2022-08-04T00:24:37.033Z,21.07
2022-08-04T00:29:40.667Z,21.18
2022-08-04T00:34:43.771Z,21.19
2022-08-04T00:39:47.066Z,21.21
2022-08-04T00:45:11.082Z,21.22
2022-08-04T00:50:52.067Z,21.14
2022-08-04T00:56:05.788Z,20.96
2022-08-04T01:01:20.815Z,20.99
2022-08-04T01:06:56.531Z,20.85
2022-08-04T01:12:08.088Z,20.91
2022-08-04T01:17:36.562Z,20.99
2022-08-04T01:22:59.947Z,20.92
2022-08-04T01:28:20.819Z,20.85
2022-08-04T01:33:23.940Z,20.84
2022-08-04T01:38:35.142Z,20.72
2022-08-04T01:43:43.349Z,20.57
2022-08-04T01:48:48.134Z,20.64
2022-08-04T01:53:50.739Z,20.55
2022-08-04T01:59:00.582Z,20.49
2022-08-04T02:04:21.787Z,20.48
2022-08-04T02:09:54.996Z,20.57
2022-08-04T02:15:04.862Z,20.48
2022-08-04T02:20:13.907Z,20.46
2022-08-04T02:25:23.460Z,20.28
2022-08-04T02:30:32.324Z,20.28
2022-08-04T02:35:39.878Z,20.29
2022-08-04T02:40:43.811Z,20.32
2022-08-04T02:45:48.277Z,20.37
2022-08-04T02:50:52.180Z,20.32
2022-08-04T02:55:59.167Z,20.22
2022-08-04T03:01:08.530Z,20.10
2022-08-04T03:06:11.750Z,20.06
2022-08-04T03:11:33.789Z,20.05
2022-08-04T03:17:03.210Z,19.98
2022-08-04T03:22:33.989Z,20.18
2022-08-04T03:28:10.214Z,20.20
2022-08-04T03:33:19.812Z,20.19
2022-08-04T03:38:55.006Z,20.24
2022-08-04T03:44:17.943Z,20.26
2022-08-04T03:49:32.126Z,20.47
2022-08-04T03:54:52.713Z,20.72
2022-08-04T03:59:58.999Z,20.75
2022-08-04T04:05:23.187Z,20.88
2022-08-04T04:10:31.532Z,20.93
2022-08-04T04:16:13.033Z,21.04
2022-08-04T04:22:03.660Z,21.35
2022-08-04T04:27:30.626Z,21.85
2022-08-04T04:33:09.907Z,21.75
2022-08-04T04:38:42.969Z,22.40
2022-08-04T04:43:54.252Z,23.48
2022-08-04T04:49:40.475Z,24.92
2022-08-04T04:54:49.466Z,26.02
2022-08-04T05:00:09.897Z,26.70
2022-08-04T05:05:52.574Z,26.40
2022-08-04T05:11:25.935Z,27.41
2022-08-04T05:16:38.467Z,27.76
2022-08-04T05:21:51.512Z,28.02
2022-08-04T05:27:01.296Z,28.09
2022-08-04T05:32:09.606Z,28.27
2022-08-04T05:37:17.430Z,27.94
2022-08-04T05:42:20.442Z,28.35
2022-08-04T05:47:26.388Z,27.83
2022-08-04T05:52:30.491Z,28.27
2022-08-04T05:57:33.895Z,28.44
2022-08-04T06:02:38.956Z,28.91
2022-08-04T06:08:12.470Z,29.19
2022-08-04T06:13:49.325Z,29.27
2022-08-04T06:20:00.353Z,29.38
2022-08-04T06:24:04.099Z,29.89
2022-08-04T06:29:16.675Z,30.15
2022-08-04T06:34:19.412Z,30.46
2022-08-04T06:39:25.454Z,30.46
2022-08-04T06:44:29.331Z,30.62
2022-08-04T06:49:55.070Z,30.28
2022-08-04T06:54:56.014Z,30.87
2022-08-04T07:00:12.164Z,31.13
2022-08-04T07:05:15.322Z,31.26
2022-08-04T07:10:22.206Z,30.74
2022-08-04T07:15:26.147Z,30.41
2022-08-04T07:20:35.246Z,30.18
2022-08-04T07:25:59.570Z,29.78
2022-08-04T07:31:02.986Z,29.87
2022-08-04T07:36:10.328Z,29.70
2022-08-04T07:46:40.986Z,30.25
2022-08-04T07:51:44.099Z,30.34
2022-08-04T07:56:49.448Z,30.18
2022-08-04T08:01:52.447Z,30.19
2022-08-04T08:06:55.242Z,30.11
2022-08-04T08:12:37.544Z,30.12
2022-08-04T08:17:20.907Z,30.13
2022-08-04T08:22:24.066Z,30.47
2022-08-04T08:27:27.633Z,30.38
2022-08-04T08:32:30.246Z,30.61
2022-08-04T08:37:43.058Z,30.67
2022-08-04T08:42:54.617Z,30.87
2022-08-04T08:48:08.043Z,31.07
2022-08-04T08:53:32.522Z,31.24
2022-08-04T08:58:50.082Z,31.55
2022-08-04T09:03:52.800Z,31.57
2022-08-04T09:09:38.645Z,31.25
2022-08-04T09:15:16.898Z,31.15
2022-08-04T09:20:26.551Z,31.40
2022-08-04T09:25:37.738Z,31.43
2022-08-04T09:30:53.310Z,31.82
2022-08-04T09:36:02.161Z,31.89
2022-08-04T09:41:48.608Z,32.29
2022-08-04T09:47:11.883Z,32.13
2022-08-04T09:52:52.891Z,32.01
2022-08-04T09:58:17.058Z,31.89
2022-08-04T10:03:20.659Z,32.07
2022-08-04T10:08:38.170Z,32.06
2022-08-04T10:14:01.686Z,32.41
2022-08-04T10:19:15.933Z,32.44
2022-08-04T10:24:21.697Z,32.51
2022-08-04T10:29:39.555Z,32.16
2022-08-04T10:35:00.170Z,32.38
2022-08-04T10:40:31.007Z,32.42
2022-08-04T10:46:04.327Z,32.54
2022-08-04T10:51:30.056Z,32.46
2022-08-04T10:56:47.449Z,32.44
2022-08-04T11:02:01.231Z,32.61
2022-08-04T11:07:07.613Z,32.86
2022-08-04T11:12:17.775Z,33.01
2022-08-04T11:17:46.897Z,33.17
2022-08-04T11:22:56.243Z,33.15
2022-08-04T11:28:30.557Z,33.07
2022-08-04T11:34:02.189Z,33.23
2022-08-04T11:39:13.780Z,33.19
2022-08-04T11:44:25.365Z,33.28
2022-08-04T11:49:56.621Z,33.33
2022-08-04T11:55:00.774Z,33.27
2022-08-04T12:00:15.711Z,33.21
2022-08-04T12:05:35.268Z,33.16
2022-08-04T12:10:42.453Z,33.38
2022-08-04T12:15:51.258Z,33.83
2022-08-04T12:21:07.682Z,34.13
2022-08-04T12:26:19.760Z,34.38
2022-08-04T12:31:30.968Z,34.60
2022-08-04T12:36:58.661Z,34.38
2022-08-04T12:42:21.182Z,34.33
2022-08-04T12:47:29.272Z,34.34
2022-08-04T12:53:00.430Z,34.43
2022-08-04T12:58:00.297Z,34.48
2022-08-04T13:03:09.632Z,34.24
2022-08-04T13:08:15.650Z,34.53
2022-08-04T13:13:28.939Z,34.60
2022-08-04T13:18:34.104Z,34.48
2022-08-04T13:24:19.796Z,34.77
2022-08-04T13:29:16.199Z,34.53
2022-08-04T13:34:19.910Z,34.72
2022-08-04T13:39:23.466Z,34.73
2022-08-04T13:44:32.361Z,34.96
2022-08-04T13:49:38.067Z,34.76
2022-08-04T13:54:57.160Z,34.70
2022-08-04T14:00:08.811Z,34.58
2022-08-04T14:05:36.733Z,34.62
2022-08-04T14:10:58.690Z,34.62
2022-08-04T14:16:04.250Z,34.51
2022-08-04T14:21:12.598Z,34.62
2022-08-04T14:26:20.986Z,34.78
2022-08-04T14:31:34.710Z,34.76
2022-08-04T14:37:13.351Z,34.38
2022-08-04T14:42:04.752Z,34.44
2022-08-04T14:47:13.411Z,34.48
2022-08-04T14:52:25.649Z,34.48
2022-08-04T14:57:28.893Z,34.40
2022-08-04T15:02:32.710Z,34.31
2022-08-04T15:07:37.744Z,34.32
2022-08-04T15:12:44.429Z,34.19
2022-08-04T15:17:47.171Z,34.08
2022-08-04T15:22:50.161Z,34.19
2022-08-04T15:27:53.773Z,34.15
2022-08-04T15:33:02.033Z,33.96
2022-08-04T15:38:14.958Z,33.92
2022-08-04T15:43:47.196Z,33.82
2022-08-04T15:49:24.133Z,33.77
2022-08-04T15:54:32.343Z,33.80
2022-08-04T16:00:01.450Z,33.76
2022-08-04T16:05:30.418Z,33.71
2022-08-04T16:10:32.927Z,33.44
2022-08-04T16:15:47.405Z,33.59
2022-08-04T16:20:52.156Z,33.40
2022-08-04T16:25:54.877Z,33.27
2022-08-04T16:31:02.105Z,33.18
2022-08-04T16:36:10.351Z,33.18
2022-08-04T16:41:13.819Z,33.14
2022-08-04T16:47:08.898Z,32.89
2022-08-04T16:52:13.299Z,32.66
2022-08-04T16:57:16.414Z,32.51
2022-08-04T17:02:26.969Z,32.32
2022-08-04T17:07:29.957Z,31.99
2022-08-04T17:12:32.547Z,31.73
2022-08-04T17:18:04.092Z,31.43
2022-08-04T17:24:16.448Z,31.22
2022-08-04T17:28:51.388Z,31.44
2022-08-04T17:33:57.957Z,31.41
2022-08-04T17:39:16.674Z,30.65
2022-08-04T17:44:19.596Z,30.37
2022-08-04T17:49:25.341Z,30.03
2022-08-04T17:54:36.518Z,29.57
2022-08-04T17:59:55.846Z,29.41
2022-08-04T18:05:05.600Z,29.13
2022-08-04T18:10:33.170Z,28.93
2022-08-04T18:15:44.148Z,28.55
2022-08-04T18:20:50.182Z,28.33
2022-08-04T18:25:53.429Z,28.20
2022-08-04T18:30:56.289Z,27.95
2022-08-04T18:36:34.461Z,27.73
2022-08-04T18:41:21.346Z,27.54
2022-08-04T18:46:26.853Z,27.43
2022-08-04T18:51:30.899Z,27.17
2022-08-04T18:56:34.212Z,27.04
2022-08-04T19:02:12.693Z,26.89
2022-08-04T19:07:29.319Z,26.83
2022-08-04T19:12:26.906Z,26.69
2022-08-04T19:17:54.013Z,26.53
2022-08-04T19:24:11.250Z,26.27
2022-08-04T19:28:17.894Z,26.23
2022-08-04T19:33:25.342Z,26.06
2022-08-04T19:38:29.642Z,26.08
2022-08-04T19:43:33.751Z,25.92
2022-08-04T19:48:37.777Z,25.76
2022-08-04T19:53:43.062Z,25.73
2022-08-04T19:58:48.115Z,25.55
2022-08-04T20:04:08.460Z,25.53
2022-08-04T20:09:25.004Z,25.51
2022-08-04T20:14:31.254Z,25.39
2022-08-04T20:19:36.548Z,25.20
2022-08-04T20:24:45.964Z,25.15
2022-08-04T20:29:55.382Z,25.06
2022-08-04T20:34:58.881Z,24.96
2022-08-04T20:40:02.420Z,24.88
2022-08-04T20:45:08.608Z,24.87
2022-08-04T20:50:19.355Z,24.79
2022-08-04T20:55:32.963Z,24.77
2022-08-04T21:00:57.212Z,24.61
2022-08-04T21:06:00.356Z,24.64
2022-08-04T21:11:06.985Z,24.68
2022-08-04T21:16:11.951Z,24.61
2022-08-04T21:21:35.831Z,24.65
2022-08-04T21:26:38.820Z,24.70
2022-08-04T21:31:50.428Z,24.57
2022-08-04T21:36:55.988Z,24.59
2022-08-04T21:47:37.406Z,24.35
2022-08-04T21:52:44.725Z,24.32
2022-08-04T21:57:49.277Z,24.31
2022-08-04T22:02:53.202Z,24.21
2022-08-04T22:07:56.297Z,24.15
2022-08-04T22:12:59.089Z,24.22
2022-08-04T22:18:04.308Z,24.03
2022-08-04T22:23:16.838Z,24.01
2022-08-04T22:28:21.780Z,23.92
2022-08-04T22:33:54.671Z,23.90
2022-08-04T22:39:01.538Z,23.89
2022-08-04T22:44:15.088Z,23.77
2022-08-04T22:49:18.128Z,23.62
2022-08-04T22:54:29.758Z,23.46
2022-08-04T22:59:34.843Z,23.32
2022-08-04T23:04:37.803Z,23.40
2022-08-04T23:09:48.981Z,23.03
2022-08-04T23:14:55.894Z,23.04
2022-08-04T23:20:00.051Z,23.00
2022-08-04T23:25:02.594Z,22.78
2022-08-04T23:30:07.056Z,22.71
2022-08-04T23:35:10.088Z,22.59
2022-08-04T23:40:30.411Z,22.56
2022-08-04T23:45:35.790Z,22.56
2022-08-04T23:51:14.773Z,22.48
2022-08-04T23:56:19.592Z,22.52
